Terminal Aerodrome Forecast
Issued by NWS

Home | Current Version | Previous Version | Text Only | Print | Product List | Glossary On
Versions: 1 2 3 4 5 6 7 8 9 10 11 12 13 14 15 16 17 18 19 20
000
FTUS44 KLUB 281732
TAFCDS
TAF
KCDS 281732Z 2818/2918 11011KT 6SM TSRA BKN025CB OVC100
     FM290000 12010KT P6SM BKN020 OVC070
      TEMPO 2900/2904 VRB20KT 6SM TSRA OVC020CB
     FM290800 10007KT 6SM BR FEW005 BKN015 BKN150=

USA.gov is the U.S. government's official web portal to all federal, state and local government web resources and services.